Time;durP1;ratioP1;P1;durP2;ratioP2;P2;SDS_P1;SDS_P2;PMS_P1;PMS_P2;Temp;Humidity;BMP_temperature;BMP_pressure;BME280_temperature;BME280_humidity;BME280_pressure;Samples;Min_cycle;Max_cycle;Signal;HPM_P1;HPM_P2
2020/12/26 00:00:46;;;;;;;12.77;4.87;;;4.40;99.90;;;;;;5055683;28;20604;-77
2020/12/26 00:03:12;;;;;;;9.33;4.60;;;4.30;99.90;;;;;;5055654;28;20254;-77
2020/12/26 00:05:39;;;;;;;7.63;4.90;;;4.40;99.90;;;;;;5055444;28;20288;-77
2020/12/26 00:08:05;;;;;;;7.40;4.77;;;4.40;99.90;;;;;;5055751;28;20922;-77
2020/12/26 00:10:33;;;;;;;9.93;4.73;;;4.50;99.90;;;;;;5055674;28;20205;-77
2020/12/26 00:12:59;;;;;;;13.77;4.60;;;4.40;99.90;;;;;;5055544;28;20202;-77
2020/12/26 00:15:25;;;;;;;11.10;5.03;;;4.30;99.90;;;;;;5055055;28;20208;-77
2020/12/26 00:17:52;;;;;;;7.33;4.50;;;4.40;99.90;;;;;;5055245;28;20284;-77
2020/12/26 00:20:19;;;;;;;14.53;5.47;;;4.50;99.90;;;;;;5055174;28;20208;-77
2020/12/26 00:22:46;;;;;;;8.10;4.80;;;4.50;99.90;;;;;;5055427;28;20254;-77
2020/12/26 00:25:12;;;;;;;7.90;4.97;;;4.50;99.90;;;;;;5055344;28;20204;-77
2020/12/26 00:27:40;;;;;;;9.33;5.07;;;4.40;99.90;;;;;;5055338;28;20287;-77
2020/12/26 00:30:07;;;;;;;8.70;4.97;;;4.40;99.90;;;;;;5055165;28;20208;-77
2020/12/26 00:32:40;;;;;;;8.50;4.70;;;4.40;99.90;;;;;;5055089;28;20205;-77
2020/12/26 00:35:06;;;;;;;9.83;4.83;;;4.40;99.90;;;;;;5055299;28;20284;-77
2020/12/26 00:37:32;;;;;;;6.60;4.87;;;4.40;99.90;;;;;;5055143;28;20301;-77
2020/12/26 00:39:59;;;;;;;6.63;4.23;;;4.50;99.90;;;;;;5055138;28;20256;-77
2020/12/26 00:42:25;;;;;;;8.50;4.17;;;4.50;99.90;;;;;;5054804;28;20211;-77
2020/12/26 00:44:52;;;;;;;7.97;4.23;;;4.50;99.90;;;;;;5054885;28;20286;-77
2020/12/26 00:47:18;;;;;;;10.00;4.40;;;4.50;99.90;;;;;;5054655;28;20197;-77
2020/12/26 00:49:45;;;;;;;9.17;4.27;;;4.50;99.90;;;;;;5054884;28;20206;-77
2020/12/26 00:52:11;;;;;;;7.57;3.93;;;4.50;99.90;;;;;;5054880;28;20489;-77
2020/12/26 00:54:38;;;;;;;6.63;4.13;;;4.50;99.90;;;;;;5055113;28;20270;-77
2020/12/26 00:57:04;;;;;;;10.13;4.80;;;4.50;99.90;;;;;;5054784;28;20292;-77
2020/12/26 00:59:30;;;;;;;7.00;3.73;;;4.60;99.90;;;;;;5054632;28;20348;-77
2020/12/26 01:01:57;;;;;;;5.77;3.67;;;4.60;99.90;;;;;;5054446;28;20291;-77
2020/12/26 01:04:24;;;;;;;9.13;3.83;;;4.60;99.90;;;;;;5053677;28;20289;-78
2020/12/26 01:06:54;;;;;;;6.00;3.23;;;4.60;99.90;;;;;;5054890;28;20241;-78
2020/12/26 01:09:20;;;;;;;6.43;3.70;;;4.70;99.90;;;;;;5054470;28;20209;-78
2020/12/26 01:11:47;;;;;;;6.13;3.43;;;4.80;99.90;;;;;;5054497;28;20224;-78
2020/12/26 01:14:14;;;;;;;8.73;3.47;;;4.80;99.90;;;;;;5054471;28;20201;-77
2020/12/26 01:16:40;;;;;;;5.60;3.30;;;4.90;99.90;;;;;;5054270;28;20639;-77
2020/12/26 01:19:07;;;;;;;6.00;3.30;;;5.00;99.90;;;;;;5054202;28;20229;-77
2020/12/26 01:21:33;;;;;;;6.23;3.23;;;5.10;99.90;;;;;;5054392;28;20198;-76
2020/12/26 01:24:00;;;;;;;7.77;3.23;;;5.20;99.90;;;;;;5054388;28;20283;-76
2020/12/26 01:26:26;;;;;;;4.90;3.17;;;5.20;99.90;;;;;;5054175;28;20208;-77
2020/12/26 01:28:52;;;;;;;7.47;3.00;;;5.20;99.90;;;;;;5053951;28;20193;-76
2020/12/26 01:31:19;;;;;;;9.57;3.33;;;5.10;99.90;;;;;;5053895;28;20216;-76
2020/12/26 01:33:45;;;;;;;8.13;3.97;;;5.10;99.90;;;;;;5053881;28;20204;-76
2020/12/26 01:36:13;;;;;;;7.03;3.63;;;5.10;99.90;;;;;;5054032;28;20292;-76
2020/12/26 01:38:40;;;;;;;7.67;3.87;;;5.10;99.90;;;;;;5053792;28;20614;-76
2020/12/26 01:41:06;;;;;;;8.40;3.73;;;5.20;99.90;;;;;;5053780;28;20201;-76
2020/12/26 01:43:32;;;;;;;6.60;3.87;;;5.10;99.90;;;;;;5053559;28;20250;-76
2020/12/26 01:46:00;;;;;;;8.73;3.87;;;5.10;99.90;;;;;;5053732;28;20199;-77
2020/12/26 01:48:27;;;;;;;6.60;3.50;;;5.00;99.90;;;;;;5053898;28;20205;-76
2020/12/26 01:50:53;;;;;;;7.70;4.10;;;5.00;99.90;;;;;;5053892;28;20193;-76
2020/12/26 01:53:21;;;;;;;8.87;4.13;;;5.00;99.90;;;;;;5053518;28;20205;-76
2020/12/26 01:55:49;;;;;;;9.27;4.20;;;5.10;99.90;;;;;;5053504;28;20200;-76
2020/12/26 01:58:16;;;;;;;9.17;4.60;;;5.00;99.90;;;;;;5053565;28;20208;-76
2020/12/26 02:00:43;;;;;;;10.47;4.40;;;4.90;99.90;;;;;;5053426;28;20732;-76
2020/12/26 02:03:10;;;;;;;7.47;4.03;;;4.90;99.90;;;;;;5053438;28;20197;-76
2020/12/26 02:05:37;;;;;;;10.63;4.63;;;4.80;99.90;;;;;;5053602;28;20207;-76
2020/12/26 02:08:05;;;;;;;8.03;4.20;;;4.80;99.90;;;;;;5053394;28;20574;-76
2020/12/26 02:10:33;;;;;;;8.00;4.03;;;4.70;99.90;;;;;;5053249;28;20201;-77
2020/12/26 02:12:59;;;;;;;12.10;4.57;;;4.70;99.90;;;;;;5053075;28;20231;-77
2020/12/26 02:15:26;;;;;;;7.83;3.90;;;4.60;99.90;;;;;;5052980;28;20197;-76
2020/12/26 02:17:52;;;;;;;5.70;3.70;;;4.60;99.90;;;;;;5053278;28;20197;-76
2020/12/26 02:20:18;;;;;;;7.27;3.73;;;4.50;99.90;;;;;;5053074;28;20329;-76
2020/12/26 02:22:47;;;;;;;9.23;3.83;;;4.40;99.90;;;;;;5053681;28;20208;-76
2020/12/26 02:25:15;;;;;;;7.20;3.80;;;4.40;99.90;;;;;;5052929;28;20243;-76
2020/12/26 02:27:41;;;;;;;8.40;3.90;;;4.50;99.90;;;;;;5052940;28;20196;-76
2020/12/26 02:30:08;;;;;;;7.73;3.97;;;4.50;99.90;;;;;;5052744;28;20728;-76
2020/12/26 02:32:34;;;;;;;6.07;3.53;;;4.50;99.90;;;;;;5053024;28;20216;-76
2020/12/26 02:35:00;;;;;;;8.37;3.87;;;4.50;99.90;;;;;;5052845;28;20600;-76
2020/12/26 02:37:27;;;;;;;9.87;4.40;;;4.50;99.90;;;;;;5052725;28;20233;-76
2020/12/26 02:39:53;;;;;;;10.87;4.10;;;4.50;99.90;;;;;;5052433;28;20650;-76
2020/12/26 02:42:20;;;;;;;6.87;4.07;;;4.40;99.90;;;;;;5052698;28;20297;-76
2020/12/26 02:44:47;;;;;;;13.67;4.10;;;4.40;99.90;;;;;;5052747;28;20204;-76
2020/12/26 02:47:14;;;;;;;8.37;3.60;;;4.40;99.90;;;;;;5052763;28;20289;-76
2020/12/26 02:49:40;;;;;;;9.90;3.70;;;4.30;99.90;;;;;;5052641;28;20202;-76
2020/12/26 02:52:06;;;;;;;6.67;3.43;;;4.20;99.90;;;;;;5052537;28;20206;-76
2020/12/26 02:54:32;;;;;;;5.67;3.40;;;4.20;99.90;;;;;;5052301;28;20224;-76
2020/12/26 02:56:59;;;;;;;9.00;4.07;;;4.20;99.90;;;;;;5052245;28;20671;-77
2020/12/26 02:59:26;;;;;;;10.67;4.13;;;4.20;99.90;;;;;;5052350;28;20697;-76
2020/12/26 03:01:52;;;;;;;8.37;3.33;;;4.20;99.90;;;;;;5052396;28;20251;-77
2020/12/26 03:04:19;;;;;;;8.47;3.70;;;4.20;99.90;;;;;;5052759;28;20288;-76
2020/12/26 03:06:45;;;;;;;6.53;3.40;;;4.20;99.90;;;;;;5052462;28;20238;-76
2020/12/26 03:09:11;;;;;;;8.13;3.60;;;4.20;99.90;;;;;;5052961;28;20198;-76
2020/12/26 03:11:39;;;;;;;9.10;3.47;;;4.30;99.90;;;;;;5052257;28;20197;-76
2020/12/26 03:14:05;;;;;;;8.43;3.90;;;4.30;99.90;;;;;;5052377;28;20235;-76
2020/12/26 03:16:32;;;;;;;9.27;3.87;;;4.20;99.90;;;;;;5052179;28;20763;-76
2020/12/26 03:18:59;;;;;;;9.10;3.93;;;4.10;99.90;;;;;;5052283;28;20225;-77
2020/12/26 03:21:25;;;;;;;10.03;3.93;;;4.10;99.90;;;;;;5052181;28;20207;-76
2020/12/26 03:23:51;;;;;;;7.87;3.73;;;4.20;99.90;;;;;;5052264;28;20303;-76
2020/12/26 03:26:18;;;;;;;9.57;3.93;;;4.30;99.90;;;;;;5052568;28;20207;-76
2020/12/26 03:28:44;;;;;;;10.57;3.77;;;4.20;99.90;;;;;;5056455;28;20662;-76
2020/12/26 03:31:12;;;;;;;9.17;3.90;;;4.20;99.90;;;;;;5056064;28;20290;-76
2020/12/26 03:33:39;;;;;;;8.77;3.80;;;4.20;99.90;;;;;;5056134;28;20198;-76
2020/12/26 03:36:06;;;;;;;9.53;3.70;;;4.20;99.90;;;;;;5056481;28;20553;-76
2020/12/26 03:38:32;;;;;;;13.20;4.03;;;4.20;99.90;;;;;;5056018;28;20226;-76
2020/12/26 03:40:58;;;;;;;7.07;4.03;;;4.10;99.90;;;;;;5056463;28;20287;-77
2020/12/26 03:43:24;;;;;;;6.33;4.00;;;4.20;99.90;;;;;;5056171;28;20194;-76
2020/12/26 03:45:51;;;;;;;6.20;3.83;;;4.10;99.90;;;;;;5055930;28;20243;-76
2020/12/26 03:48:17;;;;;;;6.17;3.73;;;4.10;99.90;;;;;;5056087;28;20209;-76
2020/12/26 03:50:44;;;;;;;7.03;3.80;;;4.10;99.90;;;;;;5055896;28;20201;-77
2020/12/26 03:53:11;;;;;;;9.00;3.73;;;4.20;99.90;;;;;;5056131;28;20205;-77
2020/12/26 03:55:37;;;;;;;7.97;3.60;;;4.20;99.90;;;;;;5055769;28;20637;-76
2020/12/26 03:58:03;;;;;;;6.77;3.70;;;4.20;99.90;;;;;;5055972;28;20347;-76
2020/12/26 04:00:30;;;;;;;11.10;3.83;;;4.20;99.90;;;;;;5055947;28;20324;-77
2020/12/26 04:02:56;;;;;;;9.33;3.93;;;4.10;99.90;;;;;;5055683;28;20201;-76
2020/12/26 04:05:22;;;;;;;9.87;4.43;;;4.00;99.90;;;;;;5055513;28;20251;-76
2020/12/26 04:07:49;;;;;;;9.10;4.40;;;4.00;99.90;;;;;;5055727;28;20292;-76
2020/12/26 04:10:16;;;;;;;10.63;4.20;;;3.90;99.90;;;;;;5055442;28;20206;-76
2020/12/26 04:12:42;;;;;;;11.30;4.27;;;3.90;99.90;;;;;;5055560;28;20599;-76
2020/12/26 04:15:08;;;;;;;11.43;4.80;;;3.90;99.90;;;;;;5055576;28;20296;-77
2020/12/26 04:17:35;;;;;;;9.80;4.27;;;3.80;99.90;;;;;;5055384;28;20292;-76
2020/12/26 04:20:01;;;;;;;8.00;4.40;;;3.70;99.90;;;;;;5054947;28;20234;-77
2020/12/26 04:22:27;;;;;;;10.07;4.67;;;3.70;99.90;;;;;;5055496;28;20231;-76
2020/12/26 04:24:55;;;;;;;9.17;5.17;;;3.70;99.90;;;;;;5055468;28;20197;-76
2020/12/26 04:27:21;;;;;;;12.13;5.30;;;3.70;99.90;;;;;;5055163;28;20294;-77
2020/12/26 04:29:48;;;;;;;9.30;5.33;;;3.70;99.90;;;;;;5055217;28;20592;-77
2020/12/26 04:32:15;;;;;;;10.53;5.60;;;3.60;99.90;;;;;;5055030;28;20202;-76
2020/12/26 04:34:41;;;;;;;12.27;4.80;;;3.60;99.90;;;;;;5055339;28;20193;-76
2020/12/26 04:37:07;;;;;;;11.80;4.80;;;3.60;99.90;;;;;;5054933;28;20211;-77
2020/12/26 04:39:36;;;;;;;11.73;5.07;;;3.60;99.90;;;;;;5055112;28;20324;-76
2020/12/26 04:42:03;;;;;;;16.20;5.17;;;3.60;99.90;;;;;;5054493;28;20202;-76
2020/12/26 04:44:30;;;;;;;9.73;4.80;;;3.60;99.90;;;;;;5055174;28;20232;-76
2020/12/26 04:46:57;;;;;;;8.70;4.80;;;3.50;99.90;;;;;;5054686;28;20205;-77
2020/12/26 04:49:30;;;;;;;9.53;4.67;;;3.50;99.90;;;;;;5055351;28;20292;-76
2020/12/26 04:52:00;;;;;;;10.83;4.50;;;3.40;99.90;;;;;;5056078;28;20291;-76
2020/12/26 04:54:27;;;;;;;12.97;4.70;;;3.40;99.90;;;;;;5055276;28;20359;-76
2020/12/26 04:56:54;;;;;;;9.27;4.17;;;3.40;99.90;;;;;;5055005;28;20203;-76
2020/12/26 04:59:23;;;;;;;7.90;4.53;;;3.40;99.90;;;;;;5054473;28;20228;-77
2020/12/26 05:01:50;;;;;;;10.20;4.30;;;3.30;99.90;;;;;;5054276;28;20208;-77
2020/12/26 05:04:16;;;;;;;12.00;4.10;;;3.20;99.90;;;;;;5053970;28;20200;-77
2020/12/26 05:06:47;;;;;;;15.53;4.00;;;3.30;99.90;;;;;;5054070;28;20343;-76
2020/12/26 05:09:15;;;;;;;6.70;3.70;;;3.20;99.90;;;;;;5054090;28;20208;-76
2020/12/26 05:11:49;;;;;;;9.17;3.47;;;3.20;99.90;;;;;;5053682;28;20197;-76
2020/12/26 05:14:17;;;;;;;14.00;3.80;;;3.20;99.90;;;;;;5053665;28;20204;-77
2020/12/26 05:16:44;;;;;;;6.43;3.83;;;3.10;99.90;;;;;;5053877;28;20200;-76
2020/12/26 05:19:11;;;;;;;8.70;4.30;;;3.20;99.90;;;;;;5053483;28;20408;-76
2020/12/26 05:21:38;;;;;;;5.10;3.40;;;3.10;99.90;;;;;;5053565;28;20201;-76
2020/12/26 05:24:06;;;;;;;7.83;3.83;;;3.10;99.90;;;;;;5053520;28;20201;-76
2020/12/26 05:26:38;;;;;;;8.43;3.97;;;3.10;99.90;;;;;;5053417;28;20200;-76
2020/12/26 05:29:05;;;;;;;10.03;3.97;;;3.00;99.90;;;;;;5053566;28;20208;-76
2020/12/26 05:31:47;;;;;;;7.33;3.60;;;3.00;99.90;;;;;;5053576;28;20201;-76
2020/12/26 05:34:14;;;;;;;9.37;3.43;;;3.00;99.90;;;;;;5053383;28;20282;-76
2020/12/26 05:36:41;;;;;;;10.73;3.67;;;3.00;99.90;;;;;;5053303;28;20207;-77
2020/12/26 05:39:08;;;;;;;8.17;3.37;;;3.00;99.90;;;;;;5053116;28;20229;-76
2020/12/26 05:41:38;;;;;;;6.67;3.30;;;3.00;99.90;;;;;;5053461;28;20269;-76
2020/12/26 05:44:05;;;;;;;6.97;3.00;;;2.90;99.90;;;;;;5053229;28;20666;-76
2020/12/26 05:46:31;;;;;;;8.83;3.23;;;2.90;99.90;;;;;;5053206;28;20300;-77
2020/12/26 05:48:59;;;;;;;11.43;3.37;;;2.80;99.90;;;;;;5052598;28;20262;-77
2020/12/26 05:51:26;;;;;;;8.70;3.03;;;2.90;99.90;;;;;;5053124;28;20215;-76
2020/12/26 05:53:56;;;;;;;6.03;3.30;;;2.80;99.90;;;;;;5052946;28;20685;-76
2020/12/26 05:56:22;;;;;;;8.00;3.37;;;2.70;99.90;;;;;;5053389;28;20204;-76
2020/12/26 05:58:49;;;;;;;9.33;3.40;;;2.70;99.90;;;;;;5052847;28;20221;-76
2020/12/26 06:01:20;;;;;;;9.17;2.90;;;2.70;99.90;;;;;;5052770;28;20204;-76
2020/12/26 06:03:47;;;;;;;7.17;2.60;;;2.70;99.90;;;;;;5053036;28;20262;-76
2020/12/26 06:06:15;;;;;;;7.07;2.60;;;2.70;99.90;;;;;;5052538;28;20294;-76
2020/12/26 06:08:42;;;;;;;8.13;2.73;;;2.60;99.90;;;;;;5052919;28;20199;-76
2020/12/26 06:11:09;;;;;;;9.90;2.93;;;2.60;99.90;;;;;;5052893;28;20508;-76
2020/12/26 06:13:37;;;;;;;9.93;2.93;;;2.60;99.90;;;;;;5052554;28;20654;-76
2020/12/26 06:16:09;;;;;;;10.47;3.37;;;2.60;99.90;;;;;;5052558;28;20204;-76
2020/12/26 06:18:40;;;;;;;7.80;2.73;;;2.50;99.90;;;;;;5052306;28;20251;-76
2020/12/26 06:21:08;;;;;;;6.70;2.60;;;2.50;99.90;;;;;;5052698;28;20216;-76
2020/12/26 06:23:38;;;;;;;9.73;2.80;;;2.50;99.90;;;;;;5052366;28;20600;-76
2020/12/26 06:26:05;;;;;;;12.53;2.93;;;2.50;99.90;;;;;;5052641;28;20577;-76
2020/12/26 06:28:33;;;;;;;4.87;2.60;;;2.40;99.90;;;;;;5052394;28;20199;-76
2020/12/26 06:31:04;;;;;;;9.10;2.93;;;2.40;99.90;;;;;;5052145;28;20247;-76
2020/12/26 06:33:37;;;;;;;14.17;3.10;;;2.40;99.90;;;;;;5052237;28;20310;-76
2020/12/26 06:36:05;;;;;;;10.37;2.93;;;2.40;99.90;;;;;;5052241;28;20702;-76
2020/12/26 06:38:32;;;;;;;8.90;2.75;;;2.40;99.90;;;;;;5052337;28;20216;-76
2020/12/26 06:41:01;;;;;;;11.47;3.03;;;2.50;99.90;;;;;;5052034;28;20439;-76
2020/12/26 06:43:47;;;;;;;11.20;2.87;;;2.50;99.90;;;;;;5052064;28;20567;-76
2020/12/26 06:46:39;;;;;;;6.80;2.50;;;2.60;99.90;;;;;;5051977;28;20542;-77
2020/12/26 06:49:06;;;;;;;11.20;2.87;;;2.70;99.90;;;;;;5051993;28;20208;-76
2020/12/26 06:51:34;;;;;;;11.07;2.57;;;2.60;99.90;;;;;;5052105;28;20207;-76
2020/12/26 06:54:01;;;;;;;6.53;2.43;;;2.60;99.90;;;;;;5051948;28;20206;-76
2020/12/26 06:56:47;;;;;;;8.50;2.33;;;2.60;99.90;;;;;;5051785;28;20242;-76
2020/12/26 06:59:14;;;;;;;6.80;2.87;;;2.50;99.90;;;;;;5051802;28;20358;-76
2020/12/26 07:01:42;;;;;;;14.17;3.17;;;2.40;99.90;;;;;;5051053;28;20204;-76
2020/12/26 07:04:16;;;;;;;8.67;2.60;;;2.40;99.90;;;;;;5051754;28;20201;-76
2020/12/26 07:06:44;;;;;;;8.33;2.60;;;2.40;99.90;;;;;;5051729;28;20201;-76
2020/12/26 07:09:12;;;;;;;9.10;2.60;;;2.40;99.90;;;;;;5051698;28;20296;-76
2020/12/26 07:11:47;;;;;;;8.17;2.43;;;2.40;99.90;;;;;;5051808;28;20246;-77
2020/12/26 07:14:30;;;;;;;8.20;2.60;;;2.30;99.90;;;;;;5051708;28;20203;-77
2020/12/26 07:16:57;;;;;;;5.47;2.33;;;2.30;99.90;;;;;;5051712;28;20205;-77
2020/12/26 07:19:39;;;;;;;6.83;2.70;;;2.40;99.90;;;;;;5051378;28;20271;-76
2020/12/26 07:22:11;;;;;;;7.37;2.67;;;2.40;99.90;;;;;;5047624;28;20208;-77
2020/12/26 07:24:39;;;;;;;5.97;2.87;;;2.40;99.90;;;;;;5051884;28;20303;-76
2020/12/26 07:27:27;;;;;;;6.60;2.77;;;2.40;99.90;;;;;;5051830;28;20212;-76
2020/12/26 07:29:56;;;;;;;5.57;2.67;;;2.40;99.90;;;;;;5051749;28;20235;-76
2020/12/26 07:32:40;;;;;;;13.17;2.83;;;2.30;99.90;;;;;;5051521;28;20645;-76
2020/12/26 07:35:13;;;;;;;9.63;2.67;;;2.30;99.90;;;;;;5051737;28;20213;-76
2020/12/26 07:37:40;;;;;;;8.97;2.70;;;2.20;99.90;;;;;;5051590;28;20209;-76
2020/12/26 07:40:07;;;;;;;5.43;2.47;;;2.20;99.90;;;;;;5051454;28;20224;-76
2020/12/26 07:42:35;;;;;;;5.77;2.77;;;2.20;99.90;;;;;;5051503;28;20692;-77
2020/12/26 07:45:09;;;;;;;7.07;2.53;;;2.20;99.90;;;;;;5051666;28;20276;-76
2020/12/26 07:47:40;;;;;;;7.73;2.90;;;2.20;99.90;;;;;;5051512;28;20205;-76
2020/12/26 07:50:06;;;;;;;15.20;3.50;;;2.20;99.90;;;;;;5051464;28;20196;-76
2020/12/26 07:52:33;;;;;;;12.07;2.90;;;2.10;99.90;;;;;;5051275;28;20258;-77
2020/12/26 07:55:00;;;;;;;4.67;2.60;;;2.10;99.90;;;;;;5051433;28;20288;-76
2020/12/26 07:57:26;;;;;;;9.17;2.77;;;2.20;99.90;;;;;;5051424;28;20196;-76
2020/12/26 07:59:53;;;;;;;6.93;2.97;;;2.20;99.90;;;;;;5051186;28;20224;-76
2020/12/26 08:02:20;;;;;;;5.60;2.77;;;2.20;99.90;;;;;;5051343;28;20201;-77
2020/12/26 08:04:47;;;;;;;6.73;2.67;;;2.30;99.90;;;;;;5051062;28;20239;-77
2020/12/26 08:07:15;;;;;;;6.10;3.10;;;2.30;99.90;;;;;;5051020;28;20196;-77
2020/12/26 08:09:49;;;;;;;6.23;3.00;;;2.30;99.90;;;;;;5051302;28;20223;-77
2020/12/26 08:12:15;;;;;;;5.13;2.80;;;2.30;99.90;;;;;;5051829;28;20670;-77
2020/12/26 08:14:42;;;;;;;9.70;3.17;;;2.30;99.90;;;;;;5055139;28;20288;-77
2020/12/26 08:17:10;;;;;;;6.27;2.63;;;2.30;99.90;;;;;;5054959;28;20292;-76
2020/12/26 08:19:36;;;;;;;6.70;3.13;;;2.40;99.90;;;;;;5054381;28;20235;-77
2020/12/26 08:22:03;;;;;;;6.37;2.90;;;2.40;99.90;;;;;;5054683;28;20209;-77
2020/12/26 08:24:29;;;;;;;6.65;3.33;;;2.50;99.90;;;;;;5054801;28;20535;-76
2020/12/26 08:26:56;;;;;;;6.37;2.93;;;2.50;99.90;;;;;;5054833;28;20641;-77
2020/12/26 08:29:26;;;;;;;7.83;3.27;;;2.50;99.90;;;;;;5054494;28;20200;-77
2020/12/26 08:31:58;;;;;;;6.47;3.20;;;2.60;99.90;;;;;;5054636;28;20208;-77
2020/12/26 08:34:39;;;;;;;7.23;3.03;;;2.50;99.90;;;;;;5054355;28;20732;-77
2020/12/26 08:37:12;;;;;;;6.77;3.70;;;2.50;99.90;;;;;;5054610;28;20201;-77
2020/12/26 08:39:41;;;;;;;5.90;3.10;;;2.60;99.90;;;;;;5054621;28;20236;-77
2020/12/26 08:42:13;;;;;;;8.50;3.07;;;2.70;99.90;;;;;;5054308;28;20196;-77
2020/12/26 08:44:40;;;;;;;7.43;3.00;;;2.90;99.90;;;;;;5054273;28;20205;-77
2020/12/26 08:47:07;;;;;;;6.23;3.00;;;3.10;99.90;;;;;;5054569;28;20203;-77
2020/12/26 08:49:34;;;;;;;7.93;3.43;;;3.20;99.90;;;;;;5054350;28;20593;-77
2020/12/26 08:52:02;;;;;;;4.77;3.23;;;3.40;99.90;;;;;;5054054;28;20265;-77
2020/12/26 08:54:28;;;;;;;7.77;3.30;;;3.50;99.90;;;;;;5054274;28;20585;-77
2020/12/26 08:56:54;;;;;;;6.57;3.13;;;3.60;99.90;;;;;;5054259;28;20194;-77
2020/12/26 08:59:28;;;;;;;6.13;3.30;;;3.70;99.90;;;;;;5054442;28;20316;-77
2020/12/26 09:01:55;;;;;;;6.53;3.03;;;3.70;99.90;;;;;;5054548;28;20197;-77
2020/12/26 09:04:21;;;;;;;9.47;3.63;;;3.90;99.90;;;;;;5054538;28;20668;-77
2020/12/26 09:06:49;;;;;;;6.67;2.93;;;4.00;99.90;;;;;;5054555;28;20240;-77
2020/12/26 09:09:17;;;;;;;8.37;2.93;;;4.10;99.90;;;;;;5054531;28;20194;-77
2020/12/26 09:11:44;;;;;;;8.17;2.93;;;4.10;99.90;;;;;;5054296;28;20198;-76
2020/12/26 09:14:20;;;;;;;5.17;3.20;;;4.10;99.90;;;;;;5054319;28;20284;-77
2020/12/26 09:16:47;;;;;;;5.70;2.83;;;4.10;99.90;;;;;;5054680;28;20335;-77
2020/12/26 09:19:14;;;;;;;6.07;3.00;;;4.10;99.90;;;;;;5053786;28;20230;-77
2020/12/26 09:21:40;;;;;;;5.50;3.07;;;4.00;99.90;;;;;;5054362;28;20198;-77
2020/12/26 09:24:18;;;;;;;6.10;3.20;;;3.90;99.90;;;;;;5053255;28;20292;-77
2020/12/26 09:26:45;;;;;;;8.63;2.97;;;3.90;99.90;;;;;;5054505;28;20255;-77
2020/12/26 09:29:21;;;;;;;5.17;2.70;;;3.90;99.90;;;;;;5054042;28;20251;-77
2020/12/26 09:31:48;;;;;;;5.83;2.53;;;4.00;99.90;;;;;;5054052;28;20216;-77
2020/12/26 09:34:15;;;;;;;3.83;2.60;;;4.00;99.90;;;;;;5054126;28;20202;-77
2020/12/26 09:36:42;;;;;;;8.77;3.10;;;4.00;99.90;;;;;;5054104;28;20236;-77
2020/12/26 09:39:08;;;;;;;6.33;3.03;;;3.90;99.90;;;;;;5054320;28;20596;-77
2020/12/26 09:41:43;;;;;;;5.83;2.83;;;3.90;99.90;;;;;;5054108;28;20543;-77
2020/12/26 09:44:10;;;;;;;7.93;2.33;;;4.00;99.90;;;;;;5054145;28;20228;-77
2020/12/26 09:46:36;;;;;;;3.60;2.33;;;4.10;99.90;;;;;;5053665;28;20203;-77
2020/12/26 09:49:03;;;;;;;10.17;2.50;;;4.20;99.90;;;;;;5053728;28;20203;-77
2020/12/26 09:51:29;;;;;;;4.37;2.07;;;4.50;99.90;;;;;;5053520;28;20667;-77
2020/12/26 09:53:56;;;;;;;9.97;2.50;;;4.70;99.90;;;;;;5053912;28;20285;-77
2020/12/26 09:56:22;;;;;;;4.90;2.70;;;5.00;99.90;;;;;;5053773;28;20696;-77
2020/12/26 09:58:50;;;;;;;6.67;2.27;;;5.10;99.90;;;;;;5053902;28;20287;-77
2020/12/26 10:01:17;;;;;;;5.60;2.40;;;5.40;99.90;;;;;;5054005;28;20316;-77
2020/12/26 10:03:44;;;;;;;6.07;2.73;;;5.60;99.90;;;;;;5054679;28;20207;-77
2020/12/26 10:06:11;;;;;;;7.83;2.37;;;5.70;99.90;;;;;;5054197;28;20297;-78
2020/12/26 10:08:37;;;;;;;6.77;2.50;;;5.90;99.90;;;;;;5055038;28;20565;-77
2020/12/26 10:11:04;;;;;;;6.50;2.40;;;5.90;99.90;;;;;;5053595;28;20259;-77
2020/12/26 10:13:30;;;;;;;6.13;2.40;;;6.10;99.90;;;;;;5053494;28;20203;-77
2020/12/26 10:15:58;;;;;;;5.17;2.50;;;6.10;99.90;;;;;;5053009;28;20223;-77
2020/12/26 10:18:24;;;;;;;5.53;2.30;;;6.00;99.90;;;;;;5052970;28;20347;-77
2020/12/26 10:20:50;;;;;;;9.67;2.63;;;5.90;99.90;;;;;;5053082;28;20232;-77
2020/12/26 10:23:17;;;;;;;11.23;2.83;;;5.70;99.90;;;;;;5052905;28;20296;-77
2020/12/26 10:25:43;;;;;;;5.50;2.97;;;5.70;99.90;;;;;;5053097;28;20288;-77
2020/12/26 10:28:09;;;;;;;6.73;2.37;;;5.60;99.90;;;;;;5053047;28;20270;-77
2020/12/26 10:30:36;;;;;;;7.60;2.70;;;5.60;99.90;;;;;;5052871;28;20194;-77
2020/12/26 10:33:03;;;;;;;6.93;3.20;;;5.50;99.90;;;;;;5052815;28;20216;-77
2020/12/26 10:35:29;;;;;;;7.70;3.00;;;5.50;99.90;;;;;;5052589;28;20205;-77
2020/12/26 10:37:56;;;;;;;6.10;2.43;;;5.50;99.90;;;;;;5052685;28;20288;-76
2020/12/26 10:40:22;;;;;;;5.80;2.90;;;5.50;99.90;;;;;;5052698;28;20240;-77
2020/12/26 10:42:48;;;;;;;8.97;2.97;;;5.50;99.90;;;;;;5052821;28;20240;-77
2020/12/26 10:45:15;;;;;;;5.47;2.90;;;5.60;99.90;;;;;;5053039;28;20205;-77
2020/12/26 10:47:41;;;;;;;6.00;3.30;;;5.70;99.90;;;;;;5052570;28;20679;-77
2020/12/26 10:50:08;;;;;;;5.57;2.90;;;5.90;99.90;;;;;;5052736;28;20202;-77
2020/12/26 10:52:35;;;;;;;7.60;3.43;;;6.10;99.90;;;;;;5052490;28;20201;-77
2020/12/26 10:55:01;;;;;;;8.70;3.13;;;6.20;99.90;;;;;;5052595;28;20305;-77
2020/12/26 10:57:27;;;;;;;5.80;3.03;;;6.20;99.90;;;;;;5052604;28;20641;-77
2020/12/26 10:59:54;;;;;;;7.87;3.00;;;6.20;99.90;;;;;;5052329;28;20764;-76
2020/12/26 11:02:20;;;;;;;7.87;2.80;;;6.20;99.90;;;;;;5052370;28;20296;-77
2020/12/26 11:04:47;;;;;;;7.03;2.80;;;6.10;99.90;;;;;;5052408;28;20758;-77
2020/12/26 11:07:14;;;;;;;8.20;3.13;;;5.90;99.90;;;;;;5052842;28;20200;-77
2020/12/26 11:09:40;;;;;;;8.77;3.17;;;5.70;99.90;;;;;;5052533;28;20198;-77
2020/12/26 11:12:07;;;;;;;6.90;3.10;;;5.80;99.90;;;;;;5052235;28;20293;-77
2020/12/26 11:14:33;;;;;;;15.30;3.30;;;5.80;99.90;;;;;;5052574;28;20233;-77
2020/12/26 11:16:59;;;;;;;6.60;3.03;;;5.80;99.90;;;;;;5052331;28;20194;-77
2020/12/26 11:19:26;;;;;;;6.10;2.63;;;6.00;99.90;;;;;;5055320;28;20231;-76
2020/12/26 11:21:54;;;;;;;7.73;2.93;;;6.10;99.90;;;;;;5060282;28;20200;-76
2020/12/26 11:24:23;;;;;;;6.40;2.87;;;6.20;99.90;;;;;;5060998;28;20686;-77
2020/12/26 11:26:50;;;;;;;7.10;2.80;;;6.30;99.90;;;;;;5061903;28;20251;-77
2020/12/26 11:29:17;;;;;;;3.83;2.60;;;6.40;99.90;;;;;;5056544;28;20292;-77
2020/12/26 11:31:43;;;;;;;4.03;2.60;;;6.60;99.90;;;;;;5061638;28;20827;-77
2020/12/26 11:34:11;;;;;;;6.23;2.60;;;6.70;99.90;;;;;;5055621;28;20193;-77
2020/12/26 11:36:39;;;;;;;4.03;2.27;;;6.80;99.90;;;;;;5056205;28;20197;-75
2020/12/26 11:39:06;;;;;;;5.63;2.50;;;6.70;99.90;;;;;;5060367;28;20193;-75
2020/12/26 11:41:33;;;;;;;6.67;2.93;;;6.60;99.90;;;;;;5057839;28;20257;-76
2020/12/26 11:44:00;;;;;;;7.03;2.07;;;6.60;99.90;;;;;;5057342;28;20251;-76
2020/12/26 11:46:27;;;;;;;6.70;2.37;;;6.70;99.90;;;;;;5052203;28;20577;-76
2020/12/26 11:48:53;;;;;;;6.60;2.17;;;6.80;99.90;;;;;;5055241;28;20292;-77
2020/12/26 11:51:20;;;;;;;9.70;2.47;;;6.90;99.90;;;;;;5056047;28;20291;-77
2020/12/26 11:53:46;;;;;;;4.67;2.07;;;6.90;99.90;;;;;;5056243;28;20329;-77
2020/12/26 11:56:14;;;;;;;2.97;2.20;;;6.80;99.90;;;;;;5055808;28;20295;-76
2020/12/26 11:58:42;;;;;;;5.23;1.80;;;6.90;99.90;;;;;;5055648;28;20292;-77
2020/12/26 12:01:09;;;;;;;3.03;1.70;;;6.80;99.90;;;;;;5055536;28;20240;-77
2020/12/26 12:03:37;;;;;;;4.60;1.83;;;6.80;99.90;;;;;;5055967;28;20262;-77
2020/12/26 12:06:04;;;;;;;3.87;1.60;;;6.80;99.90;;;;;;5055751;28;20248;-76
2020/12/26 12:08:31;;;;;;;6.87;2.00;;;6.70;99.90;;;;;;5055553;28;20203;-77
2020/12/26 12:10:57;;;;;;;4.03;1.83;;;6.80;99.90;;;;;;5055519;28;20755;-77
2020/12/26 12:13:23;;;;;;;4.77;1.80;;;6.80;99.90;;;;;;5055739;28;20199;-77
2020/12/26 12:15:51;;;;;;;4.80;1.90;;;6.80;99.90;;;;;;5055626;28;20201;-77
2020/12/26 12:18:17;;;;;;;6.43;1.93;;;6.90;99.90;;;;;;5056011;28;20229;-77
2020/12/26 12:20:44;;;;;;;6.13;2.00;;;6.90;99.90;;;;;;5055300;28;20234;-76
2020/12/26 12:23:10;;;;;;;4.07;1.73;;;6.90;99.90;;;;;;5055440;28;20201;-77
2020/12/26 12:25:39;;;;;;;2.90;1.60;;;7.00;99.90;;;;;;5055385;28;20288;-76
2020/12/26 12:28:05;;;;;;;3.10;1.60;;;7.00;99.90;;;;;;5055484;28;20657;-79
2020/12/26 12:30:32;;;;;;;3.93;1.37;;;7.20;99.90;;;;;;5055584;28;20325;-77
2020/12/26 12:32:59;;;;;;;6.73;1.90;;;7.20;99.90;;;;;;5055423;28;20474;-77
2020/12/26 12:35:25;;;;;;;3.53;1.70;;;7.20;99.90;;;;;;5055385;28;20197;-78
2020/12/26 12:37:52;;;;;;;3.27;1.70;;;7.20;99.90;;;;;;5055337;28;20294;-78
2020/12/26 12:40:19;;;;;;;5.67;1.87;;;7.10;99.90;;;;;;5054859;28;20415;-76
2020/12/26 12:42:45;;;;;;;7.13;2.43;;;7.20;99.90;;;;;;5055253;28;20208;-78
2020/12/26 12:45:12;;;;;;;6.53;2.00;;;7.20;99.90;;;;;;5055554;28;20201;-75
2020/12/26 12:47:39;;;;;;;3.93;1.90;;;7.20;99.90;;;;;;5055180;28;20225;-75
2020/12/26 12:50:08;;;;;;;10.17;1.63;;;7.10;99.90;;;;;;5054808;28;20282;-78
2020/12/26 12:52:35;;;;;;;7.27;2.10;;;7.10;99.90;;;;;;5054799;28;20198;-78
2020/12/26 12:55:01;;;;;;;3.50;1.70;;;7.00;99.90;;;;;;5054905;28;20297;-78
2020/12/26 12:57:27;;;;;;;4.53;1.97;;;6.90;99.90;;;;;;5054900;28;20201;-78